Time;durP1;ratioP1;P1;durP2;ratioP2;P2;SDS_P1;SDS_P2;PMS_P1;PMS_P2;Temp;Humidity;BMP_temperature;BMP_pressure;BME280_temperature;BME280_humidity;BME280_pressure;Samples;Min_cycle;Max_cycle;Signal;HPM_P1;HPM_P2
2021/09/21 00:02:05;;;;;;;8.70;5.03;;;;;;;;;;4985465;28;20033;-90
2021/09/21 00:04:31;;;;;;;7.13;4.88;;;;;;;;;;4981642;28;20030;-88
2021/09/21 00:06:57;;;;;;;7.97;4.65;;;;;;;;;;4998344;28;20033;-89
2021/09/21 00:09:25;;;;;;;6.75;4.47;;;;;;;;;;4997100;28;20029;-90
2021/09/21 00:12:00;;;;;;;7.07;4.57;;;;;;;;;;4999177;28;20113;-89
2021/09/21 00:14:26;;;;;;;12.18;4.82;;;;;;;;;;4996792;28;20033;-91
2021/09/21 00:17:02;;;;;;;7.07;4.95;;;;;;;;;;4995937;28;20030;-90
2021/09/21 00:19:33;;;;;;;9.35;5.47;;;;;;;;;;4965729;28;20064;-89
2021/09/21 00:22:02;;;;;;;10.50;5.38;;;;;;;;;;4970402;28;20053;-89
2021/09/21 00:24:28;;;;;;;10.57;5.65;;;;;;;;;;4994989;28;20010;-88
2021/09/21 00:26:53;;;;;;;8.80;5.35;;;;;;;;;;4980324;28;22271;-89
2021/09/21 00:29:22;;;;;;;11.85;5.40;;;;;;;;;;5003087;28;20026;-90
2021/09/21 00:31:56;;;;;;;8.82;5.13;;;;;;;;;;5016789;28;20036;-90
2021/09/21 00:34:26;;;;;;;7.18;4.25;;;;;;;;;;4999489;28;20105;-90
2021/09/21 00:36:51;;;;;;;8.73;5.05;;;;;;;;;;4967865;28;20065;-90
2021/09/21 00:39:17;;;;;;;8.85;4.90;;;;;;;;;;4985157;28;20109;-89
2021/09/21 00:41:45;;;;;;;10.88;5.20;;;;;;;;;;4993064;28;20109;-88
2021/09/21 00:44:11;;;;;;;9.27;5.80;;;;;;;;;;4978348;28;20061;-88
2021/09/21 00:46:41;;;;;;;7.90;4.80;;;;;;;;;;4996718;28;20022;-89
2021/09/21 00:49:08;;;;;;;9.02;5.38;;;;;;;;;;4981608;28;20092;-91
2021/09/21 00:51:37;;;;;;;8.50;4.70;;;;;;;;;;4986276;28;20108;-91
2021/09/21 00:54:02;;;;;;;6.10;4.10;;;;;;;;;;4997865;28;20447;-89
2021/09/21 00:56:35;;;;;;;9.43;4.50;;;;;;;;;;4991963;28;21988;-91
2021/09/21 00:59:03;;;;;;;6.35;4.43;;;;;;;;;;4976517;28;20600;-90
2021/09/21 01:01:34;;;;;;;8.30;4.93;;;;;;;;;;4999917;28;20013;-91
2021/09/21 01:04:25;;;;;;;6.60;3.70;;;;;;;;;;4978252;28;20072;-88
2021/09/21 01:07:31;;;;;;;7.55;4.38;;;;;;;;;;4934657;28;20062;-90
2021/09/21 01:10:19;;;;;;;7.30;3.80;;;;;;;;;;4938808;28;20035;-90
2021/09/21 01:12:44;;;;;;;6.32;3.30;;;;;;;;;;4934840;28;20030;-89
2021/09/21 01:15:19;;;;;;;7.32;3.63;;;;;;;;;;4943548;28;20135;-88
2021/09/21 01:17:47;;;;;;;6.35;3.80;;;;;;;;;;4967389;28;20026;-89
2021/09/21 01:20:32;;;;;;;6.45;3.70;;;;;;;;;;4933582;28;20020;-89
2021/09/21 01:23:06;;;;;;;7.40;3.67;;;;;;;;;;4957813;28;20035;-91
2021/09/21 01:25:41;;;;;;;7.07;3.38;;;;;;;;;;4941930;28;20035;-91
2021/09/21 01:28:07;;;;;;;5.78;3.40;;;;;;;;;;4909972;28;20043;-90
2021/09/21 01:30:43;;;;;;;5.93;3.65;;;;;;;;;;4926403;28;20118;-88
2021/09/21 01:33:39;;;;;;;8.50;3.33;;;;;;;;;;4944541;28;20041;-90
2021/09/21 01:35:59;;;;;;;5.72;3.13;;;;;;;;;;4966866;28;20054;-89
2021/09/21 01:38:41;;;;;;;6.10;3.40;;;;;;;;;;4964166;28;20410;-88
2021/09/21 01:41:09;;;;;;;4.85;3.20;;;;;;;;;;4965012;28;20362;-89
2021/09/21 01:43:35;;;;;;;6.03;3.13;;;;;;;;;;4998949;28;20036;-89
2021/09/21 01:46:10;;;;;;;6.00;3.38;;;;;;;;;;4983325;28;20058;-90
2021/09/21 01:48:44;;;;;;;3.03;2.55;;;;;;;;;;5001685;28;20471;-89
2021/09/21 01:51:14;;;;;;;7.60;3.35;;;;;;;;;;4993546;28;20148;-89
2021/09/21 01:59:13;;;;;;;5.10;3.78;;;;;;;;;;4987937;28;20029;-90
2021/09/21 02:01:41;;;;;;;4.82;3.28;;;;;;;;;;4999058;28;20077;-89
2021/09/21 02:04:10;;;;;;;7.38;3.08;;;;;;;;;;4998282;28;20044;-89
2021/09/21 02:06:40;;;;;;;5.55;2.80;;;;;;;;;;5001183;28;20096;-88
2021/09/21 02:09:15;;;;;;;3.17;2.58;;;;;;;;;;4998166;28;20060;-91
2021/09/21 02:11:44;;;;;;;9.85;3.50;;;;;;;;;;5001236;28;20069;-89
2021/09/21 02:14:12;;;;;;;5.38;3.35;;;;;;;;;;4996885;28;20369;-89
2021/09/21 02:16:42;;;;;;;5.38;3.45;;;;;;;;;;4998485;28;20112;-90
2021/09/21 02:19:09;;;;;;;5.93;3.45;;;;;;;;;;4983642;28;20054;-89
2021/09/21 02:22:02;;;;;;;5.35;3.35;;;;;;;;;;5015372;28;20019;-89
2021/09/21 02:24:46;;;;;;;7.00;3.50;;;;;;;;;;4990245;28;20034;-91
2021/09/21 02:27:17;;;;;;;6.57;3.22;;;;;;;;;;5022539;28;20091;-87
2021/09/21 02:30:16;;;;;;;4.97;3.05;;;;;;;;;;4998001;28;20037;-89
2021/09/21 02:33:14;;;;;;;;;;;;;;;;;;;;;
2021/09/21 02:36:31;;;;;;;5.30;3.67;;;;;;;;;;4988237;28;20046;-90
2021/09/21 02:39:37;;;;;;;;;;;;;;;;;;;;;
2021/09/21 02:42:28;;;;;;;6.80;4.43;;;;;;;;;;4973869;28;20308;-89
2021/09/21 02:45:08;;;;;;;6.15;3.85;;;;;;;;;;4957643;28;20030;-89
2021/09/21 02:47:34;;;;;;;7.25;4.10;;;;;;;;;;4958331;28;20043;-90
2021/09/21 02:50:19;;;;;;;7.32;4.18;;;;;;;;;;4961848;28;20428;-89
2021/09/21 02:53:00;;;;;;;8.00;4.05;;;;;;;;;;4968521;28;20061;-89
2021/09/21 02:55:38;;;;;;;;;;;;;;;;;;;;;
2021/09/21 02:58:18;;;;;;;9.63;4.63;;;;;;;;;;4962466;28;20034;-91
2021/09/21 03:01:13;;;;;;;9.27;4.20;;;;;;;;;;4993190;28;20481;-89
2021/09/21 03:04:06;;;;;;;7.43;4.57;;;;;;;;;;4981557;28;20042;-89
2021/09/21 03:06:46;;;;;;;6.75;3.97;;;;;;;;;;5016796;28;20080;-91
2021/09/21 03:17:41;;;;;;;10.57;4.55;;;;;;;;;;4997746;28;20030;-89
2021/09/21 03:20:19;;;;;;;6.85;4.00;;;;;;;;;;4978460;28;20022;-90
2021/09/21 03:22:46;;;;;;;7.97;4.53;;;;;;;;;;4982571;28;20060;-90
2021/09/21 03:25:20;;;;;;;5.47;3.40;;;;;;;;;;4980466;28;20041;-90
2021/09/21 03:27:59;;;;;;;10.65;4.03;;;;;;;;;;4980286;28;20034;-90
2021/09/21 03:30:34;;;;;;;10.98;4.40;;;;;;;;;;4981937;28;20042;-89
2021/09/21 03:33:00;;;;;;;9.35;5.05;;;;;;;;;;4950623;28;20030;-88
2021/09/21 03:35:28;;;;;;;8.40;4.40;;;;;;;;;;4963055;28;20041;-88
2021/09/21 03:38:04;;;;;;;8.40;4.70;;;;;;;;;;4982730;28;20038;-88
2021/09/21 03:40:31;;;;;;;10.73;4.43;;;;;;;;;;4958751;28;20027;-89
2021/09/21 03:43:06;;;;;;;6.25;3.95;;;;;;;;;;4975268;28;20029;-91
2021/09/21 03:45:38;;;;;;;8.60;4.40;;;;;;;;;;4984784;28;20590;-91
2021/09/21 03:48:05;;;;;;;8.43;3.85;;;;;;;;;;4971411;28;20562;-88
2021/09/21 03:50:36;;;;;;;6.68;3.88;;;;;;;;;;4985311;28;20034;-91
2021/09/21 03:53:08;;;;;;;10.18;4.55;;;;;;;;;;4980505;28;20041;-88
2021/09/21 03:55:39;;;;;;;8.60;4.22;;;;;;;;;;4992894;28;20034;-89
2021/09/21 03:58:13;;;;;;;6.50;4.43;;;;;;;;;;4994169;28;20039;-88
2021/09/21 04:01:11;;;;;;;8.07;5.20;;;;;;;;;;4916901;29;20488;-90
2021/09/21 04:03:46;;;;;;;7.68;3.95;;;;;;;;;;4918415;29;20040;-89
2021/09/21 04:06:43;;;;;;;8.07;4.35;;;;;;;;;;4904800;29;20131;-89
2021/09/21 04:09:21;;;;;;;9.38;4.97;;;;;;;;;;4888303;29;20040;-91
2021/09/21 04:12:07;;;;;;;10.32;4.72;;;;;;;;;;4891718;29;20055;-88
2021/09/21 04:15:03;;;;;;;6.70;3.88;;;;;;;;;;4909742;29;20064;-88
2021/09/21 04:18:07;;;;;;;;;;;;;;;;;;;;;
2021/09/21 04:20:44;;;;;;;9.40;4.55;;;;;;;;;;4932100;29;20237;-90
2021/09/21 04:23:30;;;;;;;11.30;4.50;;;;;;;;;;4915777;29;20050;-88
2021/09/21 04:25:58;;;;;;;6.10;3.70;;;;;;;;;;4917339;29;20058;-90
2021/09/21 04:28:26;;;;;;;6.65;4.07;;;;;;;;;;4906128;29;20024;-88
2021/09/21 04:30:56;;;;;;;7.32;4.15;;;;;;;;;;4943009;28;20122;-90
2021/09/21 04:33:34;;;;;;;6.65;3.85;;;;;;;;;;4964680;28;20065;-90
2021/09/21 04:36:03;;;;;;;6.90;4.40;;;;;;;;;;4985511;28;20037;-91
2021/09/21 04:38:37;;;;;;;8.50;4.28;;;;;;;;;;4975399;28;20041;-87
2021/09/21 04:47:58;;;;;;;7.35;4.38;;;;;;;;;;4900058;29;20106;-89
2021/09/21 04:50:24;;;;;;;7.03;3.92;;;;;;;;;;4963830;28;20073;-90
2021/09/21 04:52:49;;;;;;;9.25;4.05;;;;;;;;;;4985301;28;20080;-90
2021/09/21 04:55:15;;;;;;;10.18;4.22;;;;;;;;;;4998560;28;20042;-88
2021/09/21 05:00:50;;;;;;;7.93;4.00;;;;;;;;;;4988296;28;20036;-89
2021/09/21 05:03:16;;;;;;;9.32;4.53;;;;;;;;;;4982095;28;20031;-89
2021/09/21 05:05:41;;;;;;;7.45;4.35;;;;;;;;;;4998145;28;20085;-89
2021/09/21 05:08:12;;;;;;;13.65;5.05;;;;;;;;;;4983956;28;20066;-89
2021/09/21 05:10:38;;;;;;;8.50;4.63;;;;;;;;;;4971547;28;20042;-90
2021/09/21 05:13:04;;;;;;;9.18;5.10;;;;;;;;;;5005259;28;20545;-93
2021/09/21 05:15:54;;;;;;;11.65;4.75;;;;;;;;;;4965357;28;20042;-91
2021/09/21 05:21:52;;;;;;;7.10;4.22;;;;;;;;;;4992636;28;20045;-90
2021/09/21 05:24:50;;;;;;;6.90;4.68;;;;;;;;;;4991405;28;20368;-90
2021/09/21 05:27:28;;;;;;;16.45;5.20;;;;;;;;;;4951491;28;20392;-90
2021/09/21 05:30:25;;;;;;;10.98;4.95;;;;;;;;;;4981337;28;20019;-91
2021/09/21 05:32:57;;;;;;;6.68;4.53;;;;;;;;;;4968272;28;20030;-90
2021/09/21 05:35:26;;;;;;;9.10;5.35;;;;;;;;;;4982949;28;20037;-91
2021/09/21 05:38:13;;;;;;;11.88;4.88;;;;;;;;;;4987194;28;20026;-90
2021/09/21 05:40:43;;;;;;;8.50;4.63;;;;;;;;;;4997515;28;20045;-90
2021/09/21 05:43:09;;;;;;;11.32;4.78;;;;;;;;;;4986191;28;20023;-91
2021/09/21 05:45:38;;;;;;;9.23;5.50;;;;;;;;;;4985213;28;20440;-90
2021/09/21 05:48:16;;;;;;;10.85;4.97;;;;;;;;;;4967540;28;20034;-90
2021/09/21 05:51:35;;;;;;;;;;;;;;;;;;;;;
2021/09/21 05:54:06;;;;;;;11.82;5.07;;;;;;;;;;4997692;28;20034;-91
2021/09/21 05:56:43;;;;;;;8.15;4.97;;;;;;;;;;4982858;28;20423;-88
2021/09/21 05:59:11;;;;;;;6.63;4.03;;;;;;;;;;4970228;28;20080;-88
2021/09/21 06:01:44;;;;;;;15.35;5.18;;;;;;;;;;4981804;28;20506;-87
2021/09/21 06:04:14;;;;;;;12.10;5.15;;;;;;;;;;4994118;28;20057;-88
2021/09/21 06:06:57;;;;;;;7.88;4.70;;;;;;;;;;4955403;28;20135;-89
2021/09/21 06:09:53;;;;;;;9.90;4.78;;;;;;;;;;4946956;28;20043;-91
2021/09/21 06:12:27;;;;;;;10.60;4.78;;;;;;;;;;4965450;28;20041;-91
2021/09/21 06:15:10;;;;;;;10.07;5.22;;;;;;;;;;4996660;28;20046;-91
2021/09/21 06:17:42;;;;;;;16.00;4.80;;;;;;;;;;5018087;28;20475;-91
2021/09/21 06:20:23;;;;;;;7.68;4.50;;;;;;;;;;4994244;28;20100;-91
2021/09/21 06:23:34;;;;;;;9.20;4.40;;;;;;;;;;4901079;29;20028;-90
2021/09/21 06:26:25;;;;;;;9.23;5.28;;;;;;;;;;5015847;28;20123;-89
2021/09/21 06:29:11;;;;;;;7.65;4.40;;;;;;;;;;5017710;28;20070;-90
2021/09/21 06:31:44;;;;;;;10.18;4.68;;;;;;;;;;4984770;28;20040;-90
2021/09/21 06:34:29;;;;;;;8.45;4.60;;;;;;;;;;5003300;28;20046;-89
2021/09/21 06:36:55;;;;;;;12.60;4.38;;;;;;;;;;5005369;28;20061;-89
2021/09/21 06:39:31;;;;;;;11.73;5.32;;;;;;;;;;5004634;28;20054;-91
2021/09/21 06:42:02;;;;;;;7.40;3.92;;;;;;;;;;4982496;28;20030;-90
2021/09/21 06:44:40;;;;;;;;;;;;;;;;;;;;;
2021/09/21 06:47:09;;;;;;;8.38;3.85;;;;;;;;;;5014206;28;20044;-90
2021/09/21 06:49:55;;;;;;;7.68;4.38;;;;;;;;;;4989709;28;20025;-91
2021/09/21 06:52:21;;;;;;;6.80;3.60;;;;;;;;;;4993758;28;20121;-92
2021/09/21 06:54:46;;;;;;;7.70;3.60;;;;;;;;;;4980430;28;20073;-87
2021/09/21 06:57:29;;;;;;;9.73;4.00;;;;;;;;;;4986726;28;20021;-89
2021/09/21 07:00:25;;;;;;;9.48;3.88;;;;;;;;;;5004067;28;20037;-87
2021/09/21 07:02:58;;;;;;;5.82;3.35;;;;;;;;;;5003271;28;20038;-89
2021/09/21 07:05:25;;;;;;;7.45;3.67;;;;;;;;;;4967367;28;20057;-92
2021/09/21 07:08:40;;;;;;;10.80;3.63;;;;;;;;;;5017221;28;20057;-91
2021/09/21 07:14:34;;;;;;;6.93;3.30;;;;;;;;;;4975326;28;20030;-89
2021/09/21 07:17:02;;;;;;;4.53;3.05;;;;;;;;;;4999835;28;20056;-88
2021/09/21 07:19:30;;;;;;;5.43;3.38;;;;;;;;;;4963503;28;20037;-89
2021/09/21 07:22:03;;;;;;;4.97;2.83;;;;;;;;;;5010470;28;20041;-87
2021/09/21 07:24:29;;;;;;;7.55;3.10;;;;;;;;;;5004578;28;20036;-87
2021/09/21 07:27:05;;;;;;;;;;;;;;;;;;;;;
2021/09/21 07:29:49;;;;;;;9.70;3.58;;;;;;;;;;5011896;28;20053;-89
2021/09/21 07:32:17;;;;;;;5.43;2.97;;;;;;;;;;4998237;28;20022;-88
2021/09/21 07:34:43;;;;;;;4.57;2.60;;;;;;;;;;4996037;28;20069;-87
2021/09/21 07:37:18;;;;;;;6.75;3.42;;;;;;;;;;4982521;28;20032;-91
2021/09/21 07:39:57;;;;;;;8.27;3.03;;;;;;;;;;4981761;28;20041;-88
2021/09/21 07:42:43;;;;;;;6.30;3.13;;;;;;;;;;5009392;28;20096;-90
2021/09/21 07:45:27;;;;;;;7.22;3.13;;;;;;;;;;4976946;28;20034;-90
2021/09/21 07:48:29;;;;;;;5.45;2.83;;;;;;;;;;5000036;28;20057;-91
2021/09/21 07:51:48;;;;;;;;;;;;;;;;;;;;;
2021/09/21 07:55:05;;;;;;;;;;;;;;;;;;;;;
2021/09/21 07:57:57;;;;;;;5.50;3.10;;;;;;;;;;4974939;28;20030;-92
2021/09/21 08:00:38;;;;;;;5.18;2.97;;;;;;;;;;4960254;28;20484;-92
2021/09/21 08:03:33;;;;;;;3.88;3.08;;;;;;;;;;4993548;28;20798;-90
2021/09/21 08:06:14;;;;;;;6.75;3.00;;;;;;;;;;4981408;28;20046;-89
2021/09/21 08:15:44;;;;;;;5.65;2.30;;;;;;;;;;4999936;28;20057;-92
2021/09/21 08:18:13;;;;;;;3.88;2.63;;;;;;;;;;4999141;28;20496;-89
2021/09/21 08:20:46;;;;;;;7.55;2.67;;;;;;;;;;4999088;28;20049;-89
2021/09/21 08:23:27;;;;;;;4.20;2.35;;;;;;;;;;4968010;28;20354;-90
2021/09/21 08:26:15;;;;;;;4.60;2.35;;;;;;;;;;5014520;28;20044;-93
2021/09/21 08:29:04;;;;;;;4.93;2.35;;;;;;;;;;4988786;28;20034;-91
2021/09/21 08:32:08;;;;;;;6.05;2.80;;;;;;;;;;5000724;28;20056;-91
2021/09/21 08:34:59;;;;;;;3.33;2.20;;;;;;;;;;5016180;28;20111;-91
2021/09/21 08:37:34;;;;;;;5.20;2.80;;;;;;;;;;5015679;28;20090;-88
2021/09/21 08:40:01;;;;;;;3.63;2.60;;;;;;;;;;5003312;28;20048;-92
2021/09/21 08:43:14;;;;;;;4.13;2.45;;;;;;;;;;4985891;28;20041;-89
2021/09/21 08:46:09;;;;;;;5.50;2.30;;;;;;;;;;4958598;28;20613;-91
2021/09/21 08:48:58;;;;;;;4.88;2.33;;;;;;;;;;4955982;28;20114;-90
2021/09/21 08:55:07;;;;;;;6.18;2.45;;;;;;;;;;4960366;28;20034;-89
2021/09/21 08:57:55;;;;;;;3.80;2.30;;;;;;;;;;4962354;28;20062;-91
2021/09/21 09:03:57;;;;;;;3.33;2.28;;;;;;;;;;4971816;28;20034;-92
2021/09/21 09:06:39;;;;;;;4.97;2.33;;;;;;;;;;4976469;28;20043;-92
2021/09/21 09:09:30;;;;;;;5.38;2.75;;;;;;;;;;4973991;28;20344;-91
2021/09/21 09:12:01;;;;;;;3.35;2.30;;;;;;;;;;4974283;28;20050;-91
2021/09/21 09:14:31;;;;;;;4.57;2.22;;;;;;;;;;4955251;28;20034;-89
2021/09/21 09:17:14;;;;;;;3.85;2.53;;;;;;;;;;4971087;28;20037;-92
2021/09/21 09:20:10;;;;;;;3.80;2.10;;;;;;;;;;4972253;28;20039;-91
2021/09/21 09:26:32;;;;;;;4.68;2.45;;;;;;;;;;4952270;28;20069;-92
2021/09/21 09:29:10;;;;;;;3.75;2.50;;;;;;;;;;4943111;28;20174;-91
2021/09/21 09:31:59;;;;;;;5.45;2.45;;;;;;;;;;4943557;28;20133;-90
2021/09/21 09:34:41;;;;;;;4.85;2.67;;;;;;;;;;4959141;28;20046;-88
2021/09/21 09:37:10;;;;;;;5.75;2.80;;;;;;;;;;4966082;28;20067;-92
2021/09/21 09:39:41;;;;;;;7.07;3.30;;;;;;;;;;4979651;28;20041;-89
2021/09/21 09:42:16;;;;;;;6.07;2.72;;;;;;;;;;4966172;28;20031;-89
2021/09/21 09:45:02;;;;;;;2.97;2.38;;;;;;;;;;4958441;28;20410;-90
2021/09/21 09:47:54;;;;;;;4.10;2.55;;;;;;;;;;4957727;28;20141;-91
2021/09/21 09:50:26;;;;;;;3.75;2.83;;;;;;;;;;4959344;28;20042;-91
2021/09/21 09:53:23;;;;;;;5.43;3.03;;;;;;;;;;5000214;28;20027;-91
2021/09/21 09:56:18;;;;;;;6.95;2.90;;;;;;;;;;4985934;28;20066;-88
2021/09/21 09:59:06;;;;;;;4.65;2.80;;;;;;;;;;4968012;28;20034;-91
2021/09/21 10:02:14;;;;;;;4.80;2.60;;;;;;;;;;4984664;28;20034;-90
2021/09/21 10:04:50;;;;;;;2.60;2.08;;;;;;;;;;4966893;28;20030;-90
2021/09/21 10:08:07;;;;;;;;;;;;;;;;;;;;;
2021/09/21 10:10:34;;;;;;;8.02;2.40;;;;;;;;;;4956870;28;20039;-92
2021/09/21 10:13:11;;;;;;;5.55;2.60;;;;;;;;;;4946218;28;20035;-93
2021/09/21 10:15:38;;;;;;;2.85;2.20;;;;;;;;;;4947434;28;20031;-92
2021/09/21 10:18:16;;;;;;;6.57;2.70;;;;;;;;;;4975422;28;20047;-93
2021/09/21 10:21:09;;;;;;;11.20;2.45;;;;;;;;;;4976966;28;20041;-90
2021/09/21 10:23:42;;;;;;;3.92;2.13;;;;;;;;;;4963128;28;20031;-88
2021/09/21 10:26:30;;;;;;;4.30;2.80;;;;;;;;;;4981102;28;20026;-89
2021/09/21 10:28:59;;;;;;;5.10;2.20;;;;;;;;;;4988118;28;20733;-90
2021/09/21 10:31:26;;;;;;;4.45;2.17;;;;;;;;;;4959397;28;20109;-89
2021/09/21 10:34:33;;;;;;;3.60;2.60;;;;;;;;;;4977479;28;20042;-90
2021/09/21 10:36:59;;;;;;;2.95;1.98;;;;;;;;;;4958636;28;20042;-91
2021/09/21 10:39:26;;;;;;;7.78;2.22;;;;;;;;;;4963094;28;20056;-91
2021/09/21 10:41:58;;;;;;;2.92;2.03;;;;;;;;;;4960373;28;20034;-90
2021/09/21 10:44:28;;;;;;;3.88;1.98;;;;;;;;;;4975744;28;20046;-91
2021/09/21 10:47:04;;;;;;;3.40;2.20;;;;;;;;;;5016603;28;20052;-93
2021/09/21 10:49:43;;;;;;;6.07;2.25;;;;;;;;;;5015510;28;20025;-89
2021/09/21 10:52:29;;;;;;;4.13;2.45;;;;;;;;;;5029026;28;20030;-89
2021/09/21 10:54:56;;;;;;;2.40;1.95;;;;;;;;;;4981628;28;20064;-89
2021/09/21 10:57:27;;;;;;;5.32;2.28;;;;;;;;;;5014961;28;20014;-90
2021/09/21 10:59:58;;;;;;;5.97;2.08;;;;;;;;;;5015208;28;20020;-89
2021/09/21 11:02:36;;;;;;;6.43;2.10;;;;;;;;;;5011415;28;20392;-88
2021/09/21 11:05:15;;;;;;;6.00;2.83;;;;;;;;;;5014046;28;20037;-88
2021/09/21 11:07:49;;;;;;;2.45;2.13;;;;;;;;;;5010941;28;20034;-88
2021/09/21 11:10:21;;;;;;;5.93;2.28;;;;;;;;;;4993366;28;20022;-89
2021/09/21 11:12:51;;;;;;;8.23;2.25;;;;;;;;;;5001478;28;20133;-87
2021/09/21 11:15:18;;;;;;;4.10;2.70;;;;;;;;;;5007209;28;20099;-87
2021/09/21 11:17:59;;;;;;;4.28;2.47;;;;;;;;;;5000627;28;20041;-90
2021/09/21 11:20:25;;;;;;;6.05;2.25;;;;;;;;;;4984090;28;20026;-90
2021/09/21 11:22:54;;;;;;;4.18;2.40;;;;;;;;;;4986418;28;20911;-90
2021/09/21 11:25:21;;;;;;;13.48;3.30;;;;;;;;;;4984976;28;20025;-89
2021/09/21 11:27:47;;;;;;;16.20;2.95;;;;;;;;;;5002661;28;20032;-88
2021/09/21 11:30:22;;;;;;;13.63;3.10;;;;;;;;;;5000703;28;20562;-89
2021/09/21 11:32:49;;;;;;;4.90;2.83;;;;;;;;;;4999237;28;20129;-88
2021/09/21 11:35:20;;;;;;;6.97;2.75;;;;;;;;;;4991012;28;20025;-88
2021/09/21 11:37:50;;;;;;;3.60;2.50;;;;;;;;;;5007522;28;20026;-88
2021/09/21 11:40:32;;;;;;;5.18;2.50;;;;;;;;;;4979276;28;20026;-88
2021/09/21 11:43:03;;;;;;;6.35;2.50;;;;;;;;;;4999112;28;20026;-91
2021/09/21 11:45:32;;;;;;;5.80;2.47;;;;;;;;;;5002308;28;20030;-87
2021/09/21 11:48:10;;;;;;;7.05;2.72;;;;;;;;;;4983057;28;20034;-88
2021/09/21 11:50:36;;;;;;;4.75;2.72;;;;;;;;;;5003179;28;20062;-89
2021/09/21 11:53:07;;;;;;;5.65;2.53;;;;;;;;;;4995320;28;20390;-89
2021/09/21 11:55:34;;;;;;;5.60;2.72;;;;;;;;;;4998343;28;20417;-91
2021/09/21 11:58:00;;;;;;;6.10;2.95;;;;;;;;;;4987906;28;20354;-91
2021/09/21 12:00:30;;;;;;;7.82;2.95;;;;;;;;;;4997744;28;20026;-90
2021/09/21 12:02:58;;;;;;;8.30;3.25;;;;;;;;;;5005013;28;20038;-91
2021/09/21 12:05:35;;;;;;;6.38;2.63;;;;;;;;;;4987550;28;20029;-90
2021/09/21 12:08:00;;;;;;;;;;;;;;;;;;5002495;28;20175;-88
2021/09/21 12:10:37;;;;;;;;;;;;;;;;;;;;;
2021/09/21 12:13:16;;;;;;;4.78;2.55;;;;;;;;;;4999505;28;20128;-90
2021/09/21 12:15:44;;;;;;;4.72;2.60;;;;;;;;;;4983893;28;20103;-90
2021/09/21 12:18:21;;;;;;;9.13;2.95;;;;;;;;;;5000780;28;20053;-91
2021/09/21 12:20:48;;;;;;;;;;;;;;;;;;5018786;28;20026;-89
2021/09/21 12:23:21;;;;;;;6.88;2.85;;;;;;;;;;4981295;28;19970;-93
2021/09/21 12:25:49;;;;;;;5.55;2.70;;;;;;;;;;5012184;28;20109;-92
2021/09/21 12:28:23;;;;;;;8.38;2.90;;;;;;;;;;4986374;28;20026;-88
2021/09/21 12:30:52;;;;;;;7.95;3.08;;;;;;;;;;4982019;28;20148;-89
2021/09/21 12:33:33;;;;;;;5.70;2.65;;;;;;;;;;5000877;28;20367;-89
2021/09/21 12:36:27;;;;;;;5.25;2.83;;;;;;;;;;4977108;28;20026;-90
2021/09/21 12:39:05;;;;;;;8.13;3.55;;;;;;;;;;4996873;28;20053;-89
2021/09/21 12:41:35;;;;;;;6.18;3.15;;;;;;;;;;4980349;28;20036;-90
2021/09/21 12:44:11;;;;;;;6.10;2.65;;;;;;;;;;5012392;28;20022;-89
2021/09/21 12:46:42;;;;;;;8.82;3.70;;;;;;;;;;4987635;28;20060;-88
2021/09/21 12:49:17;;;;;;;5.50;3.03;;;;;;;;;;5008309;28;20034;-90
2021/09/21 12:52:02;;;;;;;6.47;3.50;;;;;;;;;;5010560;28;20033;-89
2021/09/21 12:54:31;;;;;;;10.30;3.17;;;;;;;;;;5018754;28;20078;-89
2021/09/21 12:56:59;;;;;;;9.82;3.10;;;;;;;;;;5006166;28;20066;-91
2021/09/21 12:59:26;;;;;;;5.40;3.47;;;;;;;;;;5002191;28;20396;-89
2021/09/21 13:01:56;;;;;;;14.18;3.15;;;;;;;;;;4985618;28;20025;-87
2021/09/21 13:04:24;;;;;;;3.88;2.53;;;;;;;;;;4986805;28;20045;-90
2021/09/21 13:07:07;;;;;;;9.73;3.28;;;;;;;;;;5020202;28;20022;-90
2021/09/21 13:10:00;;;;;;;11.80;3.92;;;;;;;;;;4986989;28;20030;-91
2021/09/21 13:12:52;;;;;;;11.57;3.55;;;;;;;;;;4971192;28;20349;-90
2021/09/21 13:15:43;;;;;;;6.05;3.40;;;;;;;;;;5006952;28;20049;-90
2021/09/21 13:18:10;;;;;;;7.00;3.40;;;;;;;;;;5009541;28;20049;-92
2021/09/21 13:20:36;;;;;;;11.60;3.60;;;;;;;;;;4988104;28;20113;-90
2021/09/21 13:23:13;;;;;;;7.13;3.30;;;;;;;;;;5000626;28;20026;-88
2021/09/21 13:25:44;;;;;;;4.97;3.22;;;;;;;;;;5008266;28;20065;-88
2021/09/21 13:28:11;;;;;;;5.10;3.17;;;;;;;;;;4994181;28;20038;-91
2021/09/21 13:30:36;;;;;;;7.47;3.47;;;;;;;;;;5005945;28;20061;-92
2021/09/21 13:33:06;;;;;;;7.85;3.17;;;;;;;;;;5005832;28;20373;-90
2021/09/21 13:35:32;;;;;;;7.40;3.50;;;;;;;;;;5002122;28;20033;-89
2021/09/21 13:37:58;;;;;;;7.82;3.10;;;;;;;;;;5000338;28;20026;-92
2021/09/21 13:40:39;;;;;;;6.93;3.88;;;;;;;;;;4999809;28;20085;-89
2021/09/21 13:43:12;;;;;;;5.03;3.22;;;;;;;;;;5016655;28;20148;-91
2021/09/21 13:45:39;;;;;;;5.65;3.47;;;;;;;;;;5019335;28;20041;-89
2021/09/21 13:48:05;;;;;;;4.70;3.47;;;;;;;;;;4986803;28;20022;-92
2021/09/21 13:50:35;;;;;;;7.53;3.38;;;;;;;;;;4993267;28;20120;-89
2021/09/21 13:53:06;;;;;;;4.88;2.88;;;;;;;;;;4971364;28;20089;-88
2021/09/21 13:55:38;;;;;;;4.82;3.22;;;;;;;;;;5005478;28;20029;-89
2021/09/21 13:58:06;;;;;;;6.40;2.80;;;;;;;;;;5016590;28;20359;-91
2021/09/21 14:00:43;;;;;;;5.82;2.50;;;;;;;;;;4988858;28;20041;-90
2021/09/21 14:03:09;;;;;;;5.70;3.22;;;;;;;;;;5003888;28;20036;-87
2021/09/21 14:05:42;;;;;;;6.05;2.50;;;;;;;;;;5023501;28;20014;-90
2021/09/21 14:08:08;;;;;;;7.65;2.50;;;;;;;;;;4988368;28;20037;-91
2021/09/21 14:10:49;;;;;;;7.70;2.92;;;;;;;;;;4985246;28;20030;-86
2021/09/21 14:13:15;;;;;;;6.95;3.33;;;;;;;;;;4986930;28;20037;-89
2021/09/21 14:15:47;;;;;;;7.30;2.97;;;;;;;;;;5008491;28;20014;-90
2021/09/21 14:18:16;;;;;;;4.80;2.72;;;;;;;;;;4993005;28;20434;-90
2021/09/21 14:20:52;;;;;;;4.95;2.75;;;;;;;;;;4973305;28;20049;-88
2021/09/21 14:23:18;;;;;;;4.32;2.83;;;;;;;;;;4994042;28;20046;-89
2021/09/21 14:25:52;;;;;;;3.10;2.45;;;;;;;;;;4998914;28;20030;-87
2021/09/21 14:28:21;;;;;;;6.13;2.80;;;;;;;;;;4985313;28;20130;-89
2021/09/21 14:30:50;;;;;;;6.15;2.67;;;;;;;;;;4969117;28;20032;-88
2021/09/21 14:33:37;;;;;;;7.85;2.75;;;;;;;;;;5019869;28;20056;-89
2021/09/21 14:36:23;;;;;;;4.07;2.67;;;;;;;;;;4992050;28;20044;-90
2021/09/21 14:38:57;;;;;;;5.00;2.65;;;;;;;;;;5008669;28;20057;-91
2021/09/21 14:41:23;;;;;;;2.58;2.35;;;;;;;;;;5016657;28;20523;-91
2021/09/21 14:43:49;;;;;;;5.57;2.88;;;;;;;;;;5000096;28;20103;-88
2021/09/21 14:46:17;;;;;;;4.75;2.35;;;;;;;;;;4982387;28;20034;-90
2021/09/21 14:48:48;;;;;;;4.00;2.65;;;;;;;;;;5015362;28;20042;-90
2021/09/21 14:51:18;;;;;;;5.35;2.90;;;;;;;;;;4973383;28;20086;-93
2021/09/21 14:53:51;;;;;;;3.55;2.33;;;;;;;;;;4983450;28;20594;-88
2021/09/21 14:56:25;;;;;;;4.70;2.67;;;;;;;;;;4970808;28;20037;-90
2021/09/21 14:58:50;;;;;;;4.00;2.30;;;;;;;;;;4983096;28;20456;-89
2021/09/21 15:01:17;;;;;;;4.55;2.35;;;;;;;;;;5001165;28;20414;-90
2021/09/21 15:03:53;;;;;;;3.72;2.55;;;;;;;;;;5000321;28;20038;-94
2021/09/21 15:06:46;;;;;;;5.30;2.33;;;;;;;;;;5002755;28;20034;-88
2021/09/21 15:09:15;;;;;;;3.72;2.72;;;;;;;;;;4987249;28;20034;-89
2021/09/21 15:11:40;;;;;;;4.32;2.67;;;;;;;;;;5000612;28;20478;-88
2021/09/21 15:14:08;;;;;;;4.00;2.15;;;;;;;;;;4993469;28;20055;-91
2021/09/21 15:16:37;;;;;;;3.38;2.58;;;;;;;;;;5015416;28;20017;-91
2021/09/21 15:19:18;;;;;;;7.22;2.70;;;;;;;;;;4999101;28;20096;-93
2021/09/21 15:21:44;;;;;;;4.82;2.22;;;;;;;;;;4986469;28;20046;-89
2021/09/21 15:24:14;;;;;;;4.53;2.40;;;;;;;;;;5000064;28;20610;-90
2021/09/21 15:26:43;;;;;;;5.93;2.60;;;;;;;;;;5004248;28;20842;-90
2021/09/21 15:29:19;;;;;;;6.50;2.70;;;;;;;;;;4985546;28;20041;-89
2021/09/21 15:31:44;;;;;;;4.93;2.95;;;;;;;;;;4993115;28;20489;-88
2021/09/21 15:34:13;;;;;;;4.63;3.00;;;;;;;;;;4985818;28;20030;-89
2021/09/21 15:36:42;;;;;;;6.50;2.90;;;;;;;;;;5008632;28;20188;-90
2021/09/21 15:39:09;;;;;;;7.35;2.97;;;;;;;;;;5002823;28;20102;-90
2021/09/21 15:41:44;;;;;;;6.70;2.67;;;;;;;;;;4998938;28;20092;-90
2021/09/21 15:44:11;;;;;;;8.07;2.67;;;;;;;;;;4997224;28;20036;-90
2021/09/21 15:46:45;;;;;;;7.70;3.10;;;;;;;;;;4984757;28;20112;-90
2021/09/21 15:49:15;;;;;;;8.30;2.83;;;;;;;;;;5000295;28;20025;-91
2021/09/21 15:51:49;;;;;;;6.15;3.20;;;;;;;;;;4973153;28;20034;-91
2021/09/21 15:54:16;;;;;;;6.13;3.15;;;;;;;;;;4998923;28;20026;-91
2021/09/21 15:56:49;;;;;;;6.38;2.92;;;;;;;;;;5001434;28;20160;-89
2021/09/21 15:59:18;;;;;;;8.02;2.70;;;;;;;;;;4987353;28;20022;-89
2021/09/21 16:01:51;;;;;;;5.22;3.53;;;;;;;;;;4988801;28;20110;-88
2021/09/21 16:04:23;;;;;;;5.18;3.10;;;;;;;;;;4975815;28;20033;-90
2021/09/21 16:06:58;;;;;;;13.77;3.53;;;;;;;;;;5006918;28;20052;-90
2021/09/21 16:09:24;;;;;;;8.55;3.03;;;;;;;;;;4993355;28;20033;-92
2021/09/21 16:11:53;;;;;;;8.65;3.38;;;;;;;;;;5013494;28;20018;-89
2021/09/21 16:14:19;;;;;;;9.90;4.10;;;;;;;;;;4998921;28;20079;-91
2021/09/21 16:16:47;;;;;;;6.53;3.80;;;;;;;;;;4998822;28;20416;-91
2021/09/21 16:19:19;;;;;;;7.70;3.42;;;;;;;;;;4978810;28;20041;-87
2021/09/21 16:21:45;;;;;;;7.40;3.30;;;;;;;;;;4981571;28;20040;-90
2021/09/21 16:24:20;;;;;;;6.68;3.53;;;;;;;;;;4985604;28;20558;-89
2021/09/21 16:26:50;;;;;;;7.05;3.30;;;;;;;;;;4981314;28;20037;-91
2021/09/21 16:29:23;;;;;;;5.60;3.20;;;;;;;;;;4987733;28;20034;-88
2021/09/21 16:31:49;;;;;;;8.63;3.30;;;;;;;;;;4991167;28;20064;-90
2021/09/21 16:34:21;;;;;;;8.60;3.30;;;;;;;;;;5002923;28;20029;-89